Observation data for Graham on 10/17/2020      Previous  Date  Next       Current Mesonet Observations  Soil Data  Daily Summary Page  Observations in Plain Language
KGHS 170500Z 17012KT 14/M04 A3016 RMK A01 T01371039  RH  029%=      5-min Rain = 0
KGHS 170505Z 17012KT 14/M04 A3015 RMK A01 T01371039  RH  029%=      5-min Rain = 0
KGHS 170510Z 17013KT 14/M04 A3015 RMK A01 T01381039  RH  029%=      5-min Rain = 0
KGHS 170515Z 17013KT 14/M04 A3015 RMK A01 T01381039  RH  029%=      5-min Rain = 0
KGHS 170520Z 17013KT 14/M04 A3015 RMK A01 T01381039  RH  029%=      5-min Rain = 0
KGHS 170525Z 17013KT 14/M04 A3015 RMK A01 T01391040  RH  029%=      5-min Rain = 0
KGHS 170530Z 17013KT 14/M04 A3014 RMK A01 T01391040  RH  029%=      5-min Rain = 0
KGHS 170535Z 17012KT 14/M04 A3014 RMK A01 T01381040  RH  029%=      5-min Rain = 0
KGHS 170540Z 17012KT 14/M04 A3014 RMK A01 T01381041  RH  029%=      5-min Rain = 0
KGHS 170545Z 17012KT 14/M04 A3014 RMK A01 T01381041  RH  029%=      5-min Rain = 0
KGHS 170550Z 17011KT 14/M04 A3014 RMK A01 T01371041  RH  029%=      5-min Rain = 0
KGHS 170555Z 17011KT 14/M04 A3014 RMK A01 T01361042  RH  029%=      5-min Rain = 0
KGHS 170600Z 17011KT 14/M04 A3014 RMK A01 T01351042  RH  029%=      5-min Rain = 0
KGHS 170605Z 17010KT 14/M04 A3013 RMK A01 T01351042  RH  029%=      5-min Rain = 0
KGHS 170610Z 17010KT 13/M04 A3013 RMK A01 T01331043  RH  029%=      5-min Rain = 0
KGHS 170615Z 17010KT 13/M04 A3013 RMK A01 T01311043  RH  030%=      5-min Rain = 0
KGHS 170620Z 17010KT 13/M04 A3013 RMK A01 T01301043  RH  030%=      5-min Rain = 0
KGHS 170625Z 17011KT 13/M04 A3012 RMK A01 T01281044  RH  030%=      5-min Rain = 0
KGHS 170630Z 17012KT 13/M04 A3012 RMK A01 T01291044  RH  030%=      5-min Rain = 0
KGHS 170635Z 17013G18KT 13/M05 A3011 RMK A01 T01311045  RH  029%=      5-min Rain = 0
KGHS 170640Z 17014KT 13/M05 A3011 RMK A01 T01331045  RH  029%=      5-min Rain = 0
KGHS 170645Z 17013KT 13/M04 A3011 RMK A01 T01341044  RH  029%=      5-min Rain = 0
KGHS 170650Z 17014G19KT 14/M04 A3011 RMK A01 T01351044  RH  029%=      5-min Rain = 0
KGHS 170655Z 17013KT 14/M04 A301 RMK A01 T01351044  RH  029%=      5-min Rain = 0
KGHS 170700Z 17013KT 13/M04 A301 RMK A01 T01341044  RH  029%=      5-min Rain = 0
KGHS 170705Z 17013KT 13/M04 A301 RMK A01 T01341044  RH  029%=      5-min Rain = 0
KGHS 170710Z 17013G18KT 13/M04 A301 RMK A01 T01321044  RH  029%=      5-min Rain = 0
KGHS 170715Z 17014G19KT 13/M04 A3009 RMK A01 T01331044  RH  029%=      5-min Rain = 0
KGHS 170720Z 17017G23KT 13/M04 A3009 RMK A01 T01341043  RH  029%=      5-min Rain = 0
KGHS 170725Z 17017G22KT 14/M04 A3009 RMK A01 T01351043  RH  029%=      5-min Rain = 0
KGHS 170730Z 17016KT 13/M04 A3009 RMK A01 T01341043  RH  029%=      5-min Rain = 0
KGHS 170735Z 17015G21KT 13/M04 A3009 RMK A01 T01331042  RH  029%=      5-min Rain = 0
KGHS 170740Z 18014G21KT 13/M04 A3009 RMK A01 T01331042  RH  030%=      5-min Rain = 0
KGHS 170745Z 18012KT 13/M04 A3009 RMK A01 T01321042  RH  030%=      5-min Rain = 0
KGHS 170750Z 17011KT 13/M04 A3009 RMK A01 T01311041  RH  030%=      5-min Rain = 0
KGHS 170755Z 18012G17KT 13/M04 A3008 RMK A01 T01301040  RH  031%=      5-min Rain = 0
KGHS 170800Z 18012G19KT 13/M04 A3008 RMK A01 T01321039  RH  031%=      5-min Rain = 0
KGHS 170805Z 18015G20KT 13/M04 A3008 RMK A01 T01331036  RH  031%=      5-min Rain = 0
KGHS 170810Z 18012KT 13/M04 A3008 RMK A01 T01331036  RH  031%=      5-min Rain = 0
KGHS 170815Z 18015G21KT 13/M03 A3007 RMK A01 T01341032  RH  032%=      5-min Rain = 0
KGHS 170820Z 18013KT 14/M03 A3007 RMK A01 T01351030  RH  032%=      5-min Rain = 0
KGHS 170825Z 18012G17KT 13/M03 A3007 RMK A01 T01341029  RH  032%=      5-min Rain = 0
KGHS 170830Z 18012G19KT 14/M03 A3007 RMK A01 T01351028  RH  033%=      5-min Rain = 0
KGHS 170835Z 18014G19KT 14/M03 A3006 RMK A01 T01361026  RH  033%=      5-min Rain = 0
KGHS 170840Z 18012G19KT 14/M03 A3006 RMK A01 T01371025  RH  033%=      5-min Rain = 0
KGHS 170845Z 18012KT 14/M02 A3006 RMK A01 T01361024  RH  033%=      5-min Rain = 0
KGHS 170850Z 19012KT 14/M02 A3006 RMK A01 T01351023  RH  034%=      5-min Rain = 0
KGHS 170855Z 19011KT 13/M02 A3006 RMK A01 T01331023  RH  034%=      5-min Rain = 0
KGHS 170900Z 18014KT 13/M02 A3005 RMK A01 T01331022  RH  034%=      5-min Rain = 0
KGHS 170905Z 19013KT 13/M02 A3005 RMK A01 T01321022  RH  035%=      5-min Rain = 0
KGHS 170910Z 19013G18KT 13/M02 A3005 RMK A01 T01311022  RH  035%=      5-min Rain = 0
KGHS 170915Z 19013G19KT 13/M02 A3005 RMK A01 T01291022  RH  035%=      5-min Rain = 0
KGHS 170920Z 19015KT 13/M02 A3005 RMK A01 T01281022  RH  035%=      5-min Rain = 0
KGHS 170925Z 18013G19KT 13/M02 A3005 RMK A01 T01271022  RH  036%=      5-min Rain = 0
KGHS 170930Z 18013G18KT 13/M02 A3005 RMK A01 T01261021  RH  036%=      5-min Rain = 0
KGHS 170935Z 19012KT 13/M02 A3004 RMK A01 T01251021  RH  037%=      5-min Rain = 0
KGHS 170940Z 19011G16KT 12/M02 A3004 RMK A01 T01241020  RH  037%=      5-min Rain = 0
KGHS 170945Z 18011KT 12/M02 A3004 RMK A01 T01241018  RH  038%=      5-min Rain = 0
KGHS 170950Z 18010KT 12/M02 A3004 RMK A01 T01231017  RH  038%=      5-min Rain = 0
KGHS 170955Z 18011KT 12/M02 A3004 RMK A01 T01221016  RH  039%=      5-min Rain = 0
KGHS 171000Z 18013G18KT 12/M02 A3004 RMK A01 T01221015  RH  039%=      5-min Rain = 0
KGHS 171005Z 18014KT 12/M01 A3004 RMK A01 T01221014  RH  039%=      5-min Rain = 0
KGHS 171010Z 18013G18KT 12/M01 A3004 RMK A01 T01221013  RH  039%=      5-min Rain = 0
KGHS 171015Z 18012KT 12/M01 A3004 RMK A01 T01211012  RH  040%=      5-min Rain = 0
KGHS 171020Z 19011KT 12/M01 A3004 RMK A01 T01211010  RH  041%=      5-min Rain = 0
KGHS 171025Z 19012KT 12/M01 A3003 RMK A01 T01211008  RH  041%=      5-min Rain = 0
KGHS 171030Z 18012G17KT 12/M01 A3003 RMK A01 T01211006  RH  042%=      5-min Rain = 0
KGHS 171035Z 18012KT 12/M00 A3003 RMK A01 T01201004  RH  043%=      5-min Rain = 0
KGHS 171040Z 18012KT 12/M00 A3003 RMK A01 T01211003  RH  043%=      5-min Rain = 0
KGHS 171045Z 18012KT 12/M00 A3003 RMK A01 T01211001  RH  043%=      5-min Rain = 0
KGHS 171050Z 18012G18KT 12/00 A3003 RMK A01 T01210001  RH  044%=      5-min Rain = 0
KGHS 171055Z 18011KT 12/00 A3003 RMK A01 T01210003  RH  045%=      5-min Rain = 0
KGHS 171100Z 18011KT 12/00 A3003 RMK A01 T01210004  RH  045%=      5-min Rain = 0
KGHS 171105Z 19010KT 12/01 A3003 RMK A01 T01200005  RH  046%=      5-min Rain = 0
KGHS 171110Z 19011G16KT 12/01 A3003 RMK A01 T01200006  RH  046%=      5-min Rain = 0
KGHS 171115Z 18011G18KT 12/01 A3003 RMK A01 T01200007  RH  047%=      5-min Rain = 0
KGHS 171120Z 19011G17KT 12/01 A3003 RMK A01 T01200008  RH  047%=      5-min Rain = 0
KGHS 171125Z 19011G16KT 12/01 A3003 RMK A01 T01190008  RH  047%=      5-min Rain = 0
KGHS 171130Z 18015G21KT 12/01 A3003 RMK A01 T01190010  RH  048%=      5-min Rain = 0
KGHS 171135Z 19013G18KT 12/01 A3003 RMK A01 T01190010  RH  048%=      5-min Rain = 0
KGHS 171140Z 18011KT 12/01 A3003 RMK A01 T01180010  RH  048%=      5-min Rain = 0
KGHS 171145Z 19009G14KT 12/01 A3003 RMK A01 T01170011  RH  049%=      5-min Rain = 0
KGHS 171150Z 18008KT 12/01 A3003 RMK A01 T01160012  RH  050%=      5-min Rain = 0
KGHS 171155Z 19009G17KT 12/01 A3003 RMK A01 T01150013  RH  050%=      5-min Rain = 0
KGHS 171200Z 19009G17KT 11/01 A3003 RMK A01 T01140014  RH  051%=      5-min Rain = 0
KGHS 171205Z 19011KT 12/02 A3003 RMK A01 T01150016  RH  051%=      5-min Rain = 0
KGHS 171210Z 18011G17KT 12/02 A3003 RMK A01 T01150018  RH  052%=      5-min Rain = 0
KGHS 171215Z 18011G16KT 12/02 A3003 RMK A01 T01160019  RH  052%=      5-min Rain = 0
KGHS 171220Z 19012KT 12/02 A3003 RMK A01 T01150020  RH  053%=      5-min Rain = 0
KGHS 171225Z 18010KT 11/02 A3003 RMK A01 T01140021  RH  053%=      5-min Rain = 0
KGHS 171230Z 18009KT 11/02 A3003 RMK A01 T01130022  RH  054%=      5-min Rain = 0
KGHS 171235Z 18008G13KT 11/02 A3003 RMK A01 T01130023  RH  055%=      5-min Rain = 0
KGHS 171240Z 19010G15KT 11/02 A3003 RMK A01 T01130024  RH  055%=      5-min Rain = 0
KGHS 171245Z 19009KT 11/03 A3002 RMK A01 T01120025  RH  056%=      5-min Rain = 0
KGHS 171250Z 18008KT 11/03 A3002 RMK A01 T01120026  RH  056%=      5-min Rain = 0
KGHS 171255Z 18008KT 11/03 A3002 RMK A01 T01110027  RH  057%=      5-min Rain = 0
KGHS 171300Z 18007KT 11/03 A3002 RMK A01 T01110029  RH  058%=      5-min Rain = 0
KGHS 171305Z 18008G13KT 11/03 A3002 RMK A01 T01110032  RH  059%=      5-min Rain = 0
KGHS 171310Z 19008G13KT 11/03 A3002 RMK A01 T01130034  RH  059%=      5-min Rain = 0
KGHS 171315Z 19006KT 12/04 A3002 RMK A01 T01150037  RH  060%=      5-min Rain = 0
KGHS 171320Z 19008G13KT 12/04 A3002 RMK A01 T01170039  RH  060%=      5-min Rain = 0
KGHS 171325Z 19009KT 12/04 A3002 RMK A01 T01190043  RH  061%=      5-min Rain = 0
KGHS 171330Z 20010G15KT 12/05 A3002 RMK A01 T01210045  RH  061%=      5-min Rain = 0
KGHS 171335Z 19010G15KT 12/05 A3002 RMK A01 T01230046  RH  061%=      5-min Rain = 0
KGHS 171340Z 19010G15KT 12/05 A3002 RMK A01 T01240047  RH  061%=      5-min Rain = 0
KGHS 171345Z 20009G14KT 13/05 A3002 RMK A01 T01250048  RH  061%=      5-min Rain = 0
KGHS 171350Z 20008KT 13/05 A3003 RMK A01 T01270049  RH  061%=      5-min Rain = 0
KGHS 171355Z 19008KT 13/05 A3003 RMK A01 T01280051  RH  061%=      5-min Rain = 0
KGHS 171400Z 20008KT 13/05 A3003 RMK A01 T01310053  RH  060%=      5-min Rain = 0
KGHS 171405Z 20008KT 13/06 A3003 RMK A01 T01330055  RH  060%=      5-min Rain = 0
KGHS 171410Z 21010G16KT 14/06 A3003 RMK A01 T01360056  RH  060%=      5-min Rain = 0
KGHS 171415Z 21013G18KT 14/06 A3003 RMK A01 T01360058  RH  060%=      5-min Rain = 0
KGHS 171420Z 20011G16KT 14/06 A3003 RMK A01 T01380059  RH  060%=      5-min Rain = 0
KGHS 171425Z 20010G15KT 14/06 A3003 RMK A01 T01420060  RH  059%=      5-min Rain = 0
KGHS 171430Z 20010G15KT 15/06 A3003 RMK A01 T01450061  RH  058%=      5-min Rain = 0
KGHS 171435Z 21012G18KT 15/06 A3003 RMK A01 T01450061  RH  058%=      5-min Rain = 0
KGHS 171440Z 21011G16KT 15/06 A3003 RMK A01 T01460061  RH  058%=      5-min Rain = 0
KGHS 171445Z 21013KT 15/06 A3003 RMK A01 T01490062  RH  057%=      5-min Rain = 0
KGHS 171450Z 21010KT 15/06 A3003 RMK A01 T01520062  RH  057%=      5-min Rain = 0
KGHS 171455Z 20011G18KT 16/06 A3003 RMK A01 T01550063  RH  055%=      5-min Rain = 0
KGHS 171500Z 20014G19KT 16/06 A3003 RMK A01 T01560063  RH  055%=      5-min Rain = 0
KGHS 171505Z 20010G15KT 16/06 A3003 RMK A01 T01580063  RH  055%=      5-min Rain = 0
KGHS 171510Z 20010G15KT 16/06 A3003 RMK A01 T01630063  RH  053%=      5-min Rain = 0
KGHS 171515Z 21010KT 17/06 A3003 RMK A01 T01660063  RH  052%=      5-min Rain = 0
KGHS 171520Z 21009G14KT 17/06 A3003 RMK A01 T01680062  RH  051%=      5-min Rain = 0
KGHS 171525Z 23010G15KT 17/06 A3003 RMK A01 T01720062  RH  050%=      5-min Rain = 0
KGHS 171530Z 22012G17KT 17/06 A3003 RMK A01 T01740061  RH  049%=      5-min Rain = 0
KGHS 171535Z 22013G19KT 17/06 A3003 RMK A01 T01730061  RH  049%=      5-min Rain = 0
KGHS 171540Z 21014KT 18/06 A3003 RMK A01 T01750060  RH  048%=      5-min Rain = 0
KGHS 171545Z 22015G21KT 18/06 A3002 RMK A01 T01750060  RH  048%=      5-min Rain = 0
KGHS 171550Z 20013G18KT 18/06 A3002 RMK A01 T01770060  RH  047%=      5-min Rain = 0
KGHS 171555Z 20013G20KT 18/06 A3002 RMK A01 T01800061  RH  047%=      5-min Rain = 0
KGHS 171600Z 20014G19KT 18/06 A3002 RMK A01 T01840059  RH  045%=      5-min Rain = 0
KGHS 171605Z 22013G18KT 19/06 A3002 RMK A01 T01860059  RH  044%=      5-min Rain = 0
KGHS 171610Z 21014G19KT 19/06 A3002 RMK A01 T01880058  RH  044%=      5-min Rain = 0
KGHS 171615Z 20016G21KT 19/06 A3002 RMK A01 T01910058  RH  043%=      5-min Rain = 0
KGHS 171620Z 20015KT 19/06 A3002 RMK A01 T01920058  RH  043%=      5-min Rain = 0
KGHS 171625Z 22014KT 20/06 A3002 RMK A01 T01970056  RH  040%=      5-min Rain = 0
KGHS 171630Z 21014G22KT 20/06 A3002 RMK A01 T01970055  RH  040%=      5-min Rain = 0
KGHS 171635Z 21012G19KT 20/06 A3002 RMK A01 T02020056  RH  039%=      5-min Rain = 0
KGHS 171640Z 21013G19KT 20/06 A3001 RMK A01 T02040055  RH  039%=      5-min Rain = 0
KGHS 171645Z 21015G20KT 21/06 A3001 RMK A01 T02080055  RH  038%=      5-min Rain = 0
KGHS 171650Z 21015G20KT 21/06 A3001 RMK A01 T02080056  RH  038%=      5-min Rain = 0
KGHS 171655Z 21014G19KT 21/06 A3001 RMK A01 T02110056  RH  037%=      5-min Rain = 0
KGHS 171700Z 22013G21KT 22/06 A3001 RMK A01 T02170056  RH  036%=      5-min Rain = 0
KGHS 171705Z 21013G18KT 22/06 A3001 RMK A01 T02200055  RH  035%=      5-min Rain = 0
KGHS 171710Z 21011G17KT 23/06 A3001 RMK A01 T02250055  RH  034%=      5-min Rain = 0
KGHS 171715Z 21012KT 23/05 A30 RMK A01 T02300054  RH  033%=      5-min Rain = 0
KGHS 171720Z 20013G18KT 23/05 A30 RMK A01 T02300054  RH  032%=      5-min Rain = 0
KGHS 171725Z 21011G18KT 23/05 A30 RMK A01 T02340053  RH  032%=      5-min Rain = 0
KGHS 171730Z 21012G18KT 24/05 A30 RMK A01 T02370052  RH  031%=      5-min Rain = 0
KGHS 171735Z 20012G18KT 24/05 A30 RMK A01 T02390053  RH  031%=      5-min Rain = 0
KGHS 171740Z 22015KT 24/05 A2999 RMK A01 T02400051  RH  030%=      5-min Rain = 0
KGHS 171745Z 22015G20KT 24/05 A2999 RMK A01 T02410051  RH  030%=      5-min Rain = 0
KGHS 171750Z 21013G21KT 24/05 A2999 RMK A01 T02430050  RH  029%=      5-min Rain = 0
KGHS 171755Z 21013G18KT 25/05 A2999 RMK A01 T02460051  RH  029%=      5-min Rain = 0
KGHS 171800Z 22012G18KT 25/05 A2999 RMK A01 T02500051  RH  028%=      5-min Rain = 0
KGHS 171805Z 22010G17KT 26/05 A2998 RMK A01 T02550050  RH  027%=      5-min Rain = 0
KGHS 171810Z 20013G18KT 26/05 A2998 RMK A01 T02570049  RH  027%=      5-min Rain = 0
KGHS 171815Z 22012G17KT 26/05 A2998 RMK A01 T02590047  RH  026%=      5-min Rain = 0
KGHS 171820Z 23014G19KT 26/05 A2997 RMK A01 T02630046  RH  025%=      5-min Rain = 0
KGHS 171825Z 21015G20KT 26/05 A2996 RMK A01 T02630046  RH  025%=      5-min Rain = 0
KGHS 171830Z 21014G19KT 27/05 A2996 RMK A01 T02650045  RH  025%=      5-min Rain = 0
KGHS 171835Z 22013G19KT 27/05 A2996 RMK A01 T02670045  RH  025%=      5-min Rain = 0
KGHS 171840Z 22013G19KT 27/05 A2995 RMK A01 T02720045  RH  024%=      5-min Rain = 0
KGHS 171845Z 21013G20KT 28/04 A2995 RMK A01 T02750044  RH  023%=      5-min Rain = 0
KGHS 171850Z 21014G21KT 27/04 A2994 RMK A01 T02740042  RH  023%=      5-min Rain = 0
KGHS 171855Z 20016G22KT 28/04 A2994 RMK A01 T02750042  RH  023%=      5-min Rain = 0
KGHS 171900Z 21015G22KT 28/04 A2993 RMK A01 T02770039  RH  022%=      5-min Rain = 0
KGHS 171905Z 21016G22KT 28/04 A2993 RMK A01 T02800035  RH  021%=      5-min Rain = 0
KGHS 171910Z 21015G23KT 28/03 A2993 RMK A01 T02830034  RH  021%=      5-min Rain = 0
KGHS 171915Z 20015G22KT 28/04 A2992 RMK A01 T02840036  RH  021%=      5-min Rain = 0
KGHS 171920Z 20014G21KT 29/04 A2992 RMK A01 T02880036  RH  020%=      5-min Rain = 0
KGHS 171925Z 21015G22KT 29/04 A2992 RMK A01 T02870035  RH  020%=      5-min Rain = 0
KGHS 171930Z 21017G22KT 29/03 A2991 RMK A01 T02880031  RH  020%=      5-min Rain = 0
KGHS 171935Z 21015G21KT 29/03 A2991 RMK A01 T02880032  RH  020%=      5-min Rain = 0
KGHS 171940Z 21013G19KT 29/03 A2991 RMK A01 T02920032  RH  019%=      5-min Rain = 0
KGHS 171945Z 21013G18KT 30/03 A299 RMK A01 T02970029  RH  018%=      5-min Rain = 0
KGHS 171950Z 20015G20KT 30/03 A299 RMK A01 T02970027  RH  018%=      5-min Rain = 0
KGHS 171955Z 20012G18KT 30/03 A299 RMK A01 T02990028  RH  018%=      5-min Rain = 0
KGHS 172000Z 21012G17KT 30/03 A2989 RMK A01 T03020028  RH  018%=      5-min Rain = 0
KGHS 172005Z 22013G19KT 30/03 A2989 RMK A01 T03020028  RH  018%=      5-min Rain = 0
KGHS 172010Z 21013G21KT 31/02 A2988 RMK A01 T03050023  RH  017%=      5-min Rain = 0
KGHS 172015Z 22016G22KT 31/01 A2988 RMK A01 T03060011  RH  015%=      5-min Rain = 0
KGHS 172020Z 22014G22KT 31/01 A2988 RMK A01 T03070006  RH  015%=      5-min Rain = 0
KGHS 172025Z 21015G23KT 31/01 A2988 RMK A01 T03080006  RH  015%=      5-min Rain = 0
KGHS 172030Z 22014G20KT 31/01 A2988 RMK A01 T03080007  RH  015%=      5-min Rain = 0
KGHS 172035Z 23013G19KT 31/01 A2988 RMK A01 T03110005  RH  014%=      5-min Rain = 0
KGHS 172040Z 22012G19KT 31/01 A2987 RMK A01 T03140005  RH  014%=      5-min Rain = 0
KGHS 172045Z 22013G20KT 31/01 A2987 RMK A01 T03130006  RH  014%=      5-min Rain = 0
KGHS 172050Z 21013G19KT 31/00 A2987 RMK A01 T03140004  RH  014%=      5-min Rain = 0
KGHS 172055Z 23014G21KT 31/00 A2987 RMK A01 T03140001  RH  014%=      5-min Rain = 0
KGHS 172100Z 23014G21KT 32/00 A2987 RMK A01 T031600-0  RH  013%=      5-min Rain = 0
KGHS 172105Z 23012G19KT 32/00 A2987 RMK A01 T031500-0  RH  013%=      5-min Rain = 0
KGHS 172110Z 23013G19KT 32/00 A2987 RMK A01 T03160002  RH  013%=      5-min Rain = 0
KGHS 172115Z 22013G18KT 32/00 A2987 RMK A01 T03180001  RH  013%=      5-min Rain = 0
KGHS 172120Z 21015G20KT 32/00 A2986 RMK A01 T03150001  RH  013%=      5-min Rain = 0
KGHS 172125Z 22014G21KT 32/00 A2986 RMK A01 T03150001  RH  013%=      5-min Rain = 0
KGHS 172130Z 22012G18KT 32/00 A2986 RMK A01 T03180002  RH  013%=      5-min Rain = 0
KGHS 172135Z 21013G20KT 32/00 A2985 RMK A01 T03180002  RH  013%=      5-min Rain = 0
KGHS 172140Z 21017G25KT 32/M00 A2985 RMK A01 T03171001  RH  013%=      5-min Rain = 0
KGHS 172145Z 21015G21KT 32/00 A2985 RMK A01 T031500-0  RH  013%=      5-min Rain = 0
KGHS 172150Z 20014G19KT 32/M00 A2985 RMK A01 T03171001  RH  013%=      5-min Rain = 0
KGHS 172155Z 21014KT 32/M00 A2985 RMK A01 T03191002  RH  013%=      5-min Rain = 0
KGHS 172200Z 20013G22KT 32/M00 A2985 RMK A01 T03201002  RH  013%=      5-min Rain = 0
KGHS 172205Z 20015KT 32/M00 A2984 RMK A01 T03171002  RH  013%=      5-min Rain = 0
KGHS 172210Z 21014G20KT 32/M01 A2984 RMK A01 T03191006  RH  013%=      5-min Rain = 0
KGHS 172215Z 20011G19KT 32/M01 A2984 RMK A01 T03221011  RH  012%=      5-min Rain = 0
KGHS 172220Z 20015G20KT 32/M01 A2984 RMK A01 T03211012  RH  012%=      5-min Rain = 0
KGHS 172225Z 20013G21KT 32/M01 A2983 RMK A01 T03201010  RH  012%=      5-min Rain = 0
KGHS 172230Z 19014G19KT 32/M00 A2983 RMK A01 T03201003  RH  013%=      5-min Rain = 0
KGHS 172235Z 20016G22KT 32/M01 A2983 RMK A01 T03191005  RH  013%=      5-min Rain = 0
KGHS 172240Z 20015G21KT 32/M01 A2983 RMK A01 T03191005  RH  013%=      5-min Rain = 0
KGHS 172245Z 20014G20KT 32/M00 A2983 RMK A01 T03191003  RH  013%=      5-min Rain = 0
KGHS 172250Z 20016G25KT 32/M00 A2983 RMK A01 T03191004  RH  013%=      5-min Rain = 0
KGHS 172255Z 20016G24KT 32/00 A2983 RMK A01 T03150000  RH  013%=      5-min Rain = 0
KGHS 172300Z 20018G23KT 31/00 A2983 RMK A01 T03130001  RH  014%=      5-min Rain = 0
KGHS 172305Z 20015G22KT 31/00 A2983 RMK A01 T03130002  RH  014%=      5-min Rain = 0
KGHS 172310Z 20016G21KT 31/00 A2983 RMK A01 T03110003  RH  014%=      5-min Rain = 0
KGHS 172315Z 20013G19KT 31/00 A2983 RMK A01 T03100003  RH  014%=      5-min Rain = 0
KGHS 172320Z 20016G21KT 31/00 A2983 RMK A01 T03090003  RH  014%=      5-min Rain = 0
KGHS 172325Z 20016KT 31/00 A2983 RMK A01 T03080003  RH  014%=      5-min Rain = 0
KGHS 172330Z 20016G21KT 31/00 A2983 RMK A01 T03060003  RH  014%=      5-min Rain = 0
KGHS 172335Z 20014KT 31/00 A2983 RMK A01 T03050003  RH  015%=      5-min Rain = 0
KGHS 172340Z 20014G19KT 30/00 A2983 RMK A01 T03030003  RH  015%=      5-min Rain = 0
KGHS 172345Z 20012KT 30/00 A2983 RMK A01 T03020004  RH  015%=      5-min Rain = 0
KGHS 172350Z 20011KT 30/00 A2983 RMK A01 T03000004  RH  015%=      5-min Rain = 0
KGHS 172355Z 20012KT 30/01 A2983 RMK A01 T02970005  RH  015%=      5-min Rain = 0
KGHS 180000Z 20011KT 30/01 A2983 RMK A01 T02950005  RH  016%=      5-min Rain = 0
KGHS 180005Z 20011KT 29/01 A2983 RMK A01 T02920006  RH  016%=      5-min Rain = 0
KGHS 180010Z 20010G16KT 29/01 A2983 RMK A01 T02900006  RH  016%=      5-min Rain = 0
KGHS 180015Z 20011G16KT 29/01 A2983 RMK A01 T02890006  RH  016%=      5-min Rain = 0
KGHS 180020Z 20012G17KT 29/01 A2983 RMK A01 T02870005  RH  016%=      5-min Rain = 0
KGHS 180025Z 20012G17KT 29/01 A2983 RMK A01 T02850005  RH  016%=      5-min Rain = 0
KGHS 180030Z 20013KT 28/00 A2983 RMK A01 T02840004  RH  016%=      5-min Rain = 0
KGHS 180035Z 20012G18KT 28/00 A2983 RMK A01 T02820004  RH  017%=      5-min Rain = 0
KGHS 180040Z 20011G16KT 28/00 A2984 RMK A01 T02800004  RH  017%=      5-min Rain = 0
KGHS 180045Z 20012KT 28/00 A2984 RMK A01 T02770004  RH  017%=      5-min Rain = 0
KGHS 180050Z 20011KT 28/00 A2984 RMK A01 T02760004  RH  017%=      5-min Rain = 0
KGHS 180055Z 20010KT 27/00 A2984 RMK A01 T02730004  RH  018%=      5-min Rain = 0
KGHS 180100Z 20011KT 27/00 A2984 RMK A01 T02710004  RH  018%=      5-min Rain = 0
KGHS 180105Z 20011KT 27/00 A2984 RMK A01 T02690004  RH  018%=      5-min Rain = 0
KGHS 180110Z 20011KT 27/00 A2984 RMK A01 T02680003  RH  018%=      5-min Rain = 0
KGHS 180115Z 20011KT 27/00 A2985 RMK A01 T02690002  RH  018%=      5-min Rain = 0
KGHS 180120Z 20010G15KT 27/00 A2985 RMK A01 T02680002  RH  018%=      5-min Rain = 0
KGHS 180125Z 20011G16KT 27/00 A2985 RMK A01 T02670001  RH  018%=      5-min Rain = 0
KGHS 180130Z 20011KT 27/00 A2985 RMK A01 T02690001  RH  018%=      5-min Rain = 0
KGHS 180135Z 19011G16KT 27/00 A2984 RMK A01 T02710000  RH  017%=      5-min Rain = 0
KGHS 180140Z 19012G17KT 27/00 A2984 RMK A01 T02720000  RH  017%=      5-min Rain = 0
KGHS 180145Z 19012G17KT 27/00 A2984 RMK A01 T02720000  RH  017%=      5-min Rain = 0
KGHS 180150Z 19014KT 27/00 A2984 RMK A01 T02710002  RH  017%=      5-min Rain = 0
KGHS 180155Z 19015KT 27/00 A2984 RMK A01 T02690004  RH  018%=      5-min Rain = 0
KGHS 180200Z 19013G18KT 27/01 A2984 RMK A01 T02690006  RH  018%=      5-min Rain = 0
KGHS 180205Z 20012G17KT 27/01 A2984 RMK A01 T02670009  RH  019%=      5-min Rain = 0
KGHS 180210Z 19014KT 27/01 A2984 RMK A01 T02650011  RH  019%=      5-min Rain = 0
KGHS 180215Z 20015G21KT 27/01 A2984 RMK A01 T02650013  RH  020%=      5-min Rain = 0
KGHS 180220Z 20015G22KT 27/01 A2984 RMK A01 T02650014  RH  020%=      5-min Rain = 0
KGHS 180225Z 19019G26KT 27/02 A2984 RMK A01 T02650015  RH  020%=      5-min Rain = 0
KGHS 180230Z 19019G27KT 26/02 A2985 RMK A01 T02640022  RH  021%=      5-min Rain = 0
KGHS 180235Z 19019G25KT 26/03 A2985 RMK A01 T02600031  RH  023%=      5-min Rain = 0
KGHS 180240Z 19019G26KT 26/04 A2984 RMK A01 T02560039  RH  025%=      5-min Rain = 0
KGHS 180245Z 19017G25KT 25/04 A2985 RMK A01 T02520043  RH  026%=      5-min Rain = 0
KGHS 180250Z 19017G24KT 25/05 A2985 RMK A01 T02490048  RH  028%=      5-min Rain = 0
KGHS 180255Z 19018G26KT 25/05 A2985 RMK A01 T02470054  RH  029%=      5-min Rain = 0
KGHS 180300Z 19015G21KT 25/06 A2985 RMK A01 T02460058  RH  031%=      5-min Rain = 0
KGHS 180305Z 19019G24KT 25/06 A2985 RMK A01 T02450062  RH  032%=      5-min Rain = 0
KGHS 180310Z 19019G25KT 24/07 A2985 RMK A01 T02440065  RH  032%=      5-min Rain = 0
KGHS 180315Z 19017G25KT 24/07 A2986 RMK A01 T02420067  RH  033%=      5-min Rain = 0
KGHS 180320Z 19020G25KT 24/07 A2986 RMK A01 T02410069  RH  034%=      5-min Rain = 0
KGHS 180325Z 19017G27KT 24/07 A2986 RMK A01 T02400071  RH  035%=      5-min Rain = 0
KGHS 180330Z 19019G26KT 24/07 A2986 RMK A01 T02390074  RH  036%=      5-min Rain = 0
KGHS 180335Z 19018G25KT 24/08 A2986 RMK A01 T02370076  RH  037%=      5-min Rain = 0
KGHS 180340Z 19017G25KT 24/08 A2986 RMK A01 T02360078  RH  037%=      5-min Rain = 0
KGHS 180345Z 19018G25KT 23/08 A2986 RMK A01 T02340080  RH  038%=      5-min Rain = 0
KGHS 180350Z 19015G20KT 23/08 A2987 RMK A01 T02330081  RH  039%=      5-min Rain = 0
KGHS 180355Z 19015G20KT 23/08 A2987 RMK A01 T02310083  RH  040%=      5-min Rain = 0
KGHS 180400Z 19015G23KT 23/08 A2987 RMK A01 T02300084  RH  040%=      5-min Rain = 0
KGHS 180405Z 19015G21KT 23/09 A2987 RMK A01 T02290085  RH  041%=      5-min Rain = 0
KGHS 180410Z 20013G19KT 23/09 A2987 RMK A01 T02280086  RH  041%=      5-min Rain = 0
KGHS 180415Z 19013KT 23/09 A2987 RMK A01 T02260087  RH  042%=      5-min Rain = 0
KGHS 180420Z 20014G21KT 23/09 A2987 RMK A01 T02250088  RH  043%=      5-min Rain = 0
KGHS 180425Z 20012G17KT 22/09 A2987 RMK A01 T02240089  RH  043%=      5-min Rain = 0
KGHS 180430Z 20012G18KT 22/09 A2988 RMK A01 T02230090  RH  044%=      5-min Rain = 0
KGHS 180435Z 19014G22KT 22/09 A2988 RMK A01 T02220091  RH  045%=      5-min Rain = 0
KGHS 180440Z 19013G19KT 22/09 A2988 RMK A01 T02210093  RH  045%=      5-min Rain = 0
KGHS 180445Z 19011G17KT 22/09 A2988 RMK A01 T02200093  RH  046%=      5-min Rain = 0
KGHS 180450Z 20011G16KT 22/09 A2988 RMK A01 T02180094  RH  047%=      5-min Rain = 0
KGHS 180455Z 19012G21KT 22/10 A2988 RMK A01 T02180095  RH  047%=      5-min Rain = 0

Page generated in 0.0421 seconds.